Los Posos, Valles Caldera, New Mexico Weather observations

Data are for 10 minute period ending at time listed.
 Day   Time   Solar   Ave.   Ave.  Ave.  Vector  Max.   Baro.   Total    
  of    of     Rad.   Air    Rel.  Wind   Wind   Wind  Press.  Precip.   
Year   Day            Temp.  Hum.  Speed  Dir.   Gust                    
2014   (MST)  Kw/m2    F      %     mph   deg.    mph    mb.     in.     
-------------------------------------------------------------------------
 293    0:30   0.00   30.1    98    1.1   245     3.0   99999.0    0.00 
 293    0:40   0.00   30.8    98    1.4   239     3.6   99999.0    0.00 
 293    0:50   0.00   31.0    98    0.4   244     2.4   99999.0    0.00 
 293    1:00   0.00   30.7    98    0.9   246     2.4   99999.0    0.00 
 293    1:10   0.00   30.8    98    0.1   272     1.8   99999.0    0.00 
 293    1:20   0.00   30.5    98    1.3   250     3.0   99999.0    0.00 
 293    1:30   0.00   30.8    98    1.6   266     3.0   99999.0    0.00 
 293    1:40   0.00   31.0    98    0.3   271     3.0   99999.0    0.00 
 293    1:50   0.00   30.7    98    0.0     0     0.0   99999.0    0.00 
 293    2:00   0.00   31.0    98    0.0     0     0.0   99999.0    0.00 
 293    2:10   0.00   31.2    98    0.0     0     0.0   99999.0    0.00 
 293    2:20   0.00   30.8    98    0.0     0     0.0   99999.0    0.00 
 293    2:30   0.00   30.9    98    0.0     0     0.0   99999.0    0.00 
 293    2:40   0.00   30.9    98    0.0     0     0.0   99999.0    0.00 
 293    2:50   0.00   31.0    98    0.0     0     0.0   99999.0    0.00 
 293    3:00   0.00   31.7    98    0.0     0     0.0   99999.0    0.00 
 293    3:10   0.00   32.2    98    0.0     0     0.0   99999.0    0.00 
 293    3:20   0.00   32.3    98    0.0     0     0.0   99999.0    0.00 
 293    3:30   0.00   32.3    98    0.0     0     0.0   99999.0    0.00 
 293    3:40   0.00   32.3    98    0.0     0     0.0   99999.0    0.00 
 293    3:50   0.00   32.3    98    0.0     0     0.0   99999.0    0.00 
 293    4:00   0.00   32.5    98    0.0     0     0.0   99999.0    0.00 
 293    4:10   0.00   32.0    98    0.0     0     0.0   99999.0    0.00 
 293    4:20   0.00   31.6    98    0.0     0     0.0   99999.0    0.00 
 293    4:30   0.00   31.5    98    0.0     0     0.0   99999.0    0.00 
 293    4:40   0.00   31.1    98    0.0     0     0.0   99999.0    0.00 
 293    4:50   0.00   31.1    98    0.0     0     0.0   99999.0    0.00 
 293    5:00   0.00   31.0    98    0.0     0     0.0   99999.0    0.00 
 293    5:10   0.00   30.8    98    0.0     0     0.0   99999.0    0.00 
 293    5:20   0.00   30.4    98    0.0     0     0.0   99999.0    0.00 
 293    5:30   0.00   30.3    98    0.0     0     0.0   99999.0    0.00 
 293    5:40   0.00   30.8    98    0.0     0     0.0   99999.0    0.00 
 293    5:50   0.00   31.2    98    0.0     0     0.0   99999.0    0.00 
 293    6:00   0.00   30.5    98    0.0     0     0.0   99999.0    0.00 
 293    6:10   0.00   29.8    98    0.0     0     0.0   99999.0    0.00 
 293    6:20   0.00   29.8    98    0.0     0     0.0   99999.0    0.00 
 293    6:30   0.01   30.6    98    0.0     0     0.0   99999.0    0.00 
 293    6:40   0.01   30.5    98    0.0     0     0.0   99999.0    0.00 
 293    6:50   0.01   30.5    98    0.0     0     0.0   99999.0    0.00 
 293    7:00   0.02   31.1    98    0.0     0     0.0   99999.0    0.00 
 293    7:10   0.02   31.3    98    0.0     0     0.0   99999.0    0.00 
 293    7:20   0.11   32.0    98    0.0     0     0.0   99999.0    0.00 
 293    7:30   0.17   34.2    98    0.1   260     1.8   99999.0    0.00 
 293    7:40   0.24   35.6    97    0.2   338     1.8   99999.0    0.01 
 293    7:50   0.29   37.8    97    0.0     0     0.0   99999.0    0.00 
 293    8:00   0.28   42.0    97    0.0   187     1.2   99999.0    0.00 
 293    8:10   0.22   45.8    95    0.7    85     3.0   99999.0    0.00 
 293    8:20   0.31   47.9    84    0.8   160     3.6   99999.0    0.00 
 293    8:30   0.34   49.9    70    1.4   142     3.6   99999.0    0.00 
 293    8:40   0.40   52.1    64    0.5   107     2.4   99999.0    0.00 
 293    8:50   0.46   55.0    57    1.8    45     4.2   99999.0    0.00 
 293    9:00   0.23   54.8    56    3.3    87     6.0   99999.0    0.00 
 293    9:10   0.43   52.4    58    2.6   170     5.4   99999.0    0.00 
 293    9:20   0.52   53.9    53    2.8   245     4.8   99999.0    0.00 
 293    9:30   0.56   55.3    50    2.9   248     7.8   99999.0    0.00 
 293    9:40   0.59   55.7    50    5.3   114    13.1   99999.0    0.00 
 293    9:50   0.62   56.6    48    6.6    82    13.1   99999.0    0.00 
 293   10:00   0.63   57.3    47    5.1   112    11.3   99999.0    0.00 
 293   10:10   0.65   57.3    46    5.5   116    13.7   99999.0    0.00 
 293   10:20   0.68   58.2    45    4.3   112     7.8   99999.0    0.00 
 293   10:30   0.63   58.4    44    5.8    94    13.1   99999.0    0.00 
 293   10:40   0.69   57.7    45    5.5   136    11.9   99999.0    0.00 
 293   10:50   0.70   57.6    45    5.5   105    13.7   99999.0    0.00 
 293   11:00   0.73   58.3    44    5.7   127    13.1   99999.0    0.00 
 293   11:10   0.38   56.0    46    5.8   139    16.1   99999.0    0.00 
 293   11:20   0.80   57.4    45    6.9   167    16.1   99999.0    0.00 
 293   11:30   0.72   57.2    43    7.5   147    16.7   99999.0    0.00 
 293   11:40   0.71   57.5    42    6.6   178    13.7   99999.0    0.00 
 293   11:50   0.66   57.7    42    7.2   172    12.5   99999.0    0.00 
 293   12:00   0.47   56.2    43    6.0   127    10.8   99999.0    0.00 
 293   12:10   0.42   56.5    42    5.5   156    15.5   99999.0    0.00 
 293   12:20   0.68   57.4    39    7.1   118    13.1   99999.0    0.00 
 293   12:30   0.78   58.7    35    6.3   178    12.5   99999.0    0.00 
 293   12:40   0.55   58.7    34    6.7   130    13.7   99999.0    0.00 
 293   12:50   0.67   57.5    34    5.7   141    13.7   99999.0    0.00 
 293   13:00   0.83   59.0    34    7.6   147    10.8   99999.0    0.00 
 293   13:10   0.71   59.5    34    6.3   145    11.9   99999.0    0.00 
 293   13:20   0.73   60.3    34    8.8    75    17.9   99999.0    0.00 
 293   13:30   0.62   61.1    32    6.2   145    14.3   99999.0    0.00 
 293   13:40   0.52   58.9    34    6.2   167    14.3   99999.0    0.00 
 293   13:50   0.44   59.0    36    5.9   133    11.3   99999.0    0.00 
 293   14:00   0.35   56.7    42    6.3   133    12.5   99999.0    0.00 
 293   14:10   0.39   57.8    40    7.5   138    13.1   99999.0    0.00 
 293   14:20   0.22   55.1    41    6.8   150    12.5   99999.0    0.00 
 293   14:30   0.54   58.1    39    5.4   173    10.8   99999.0    0.00 
 293   14:40   0.11   55.7    43    5.5   177    10.8   99999.0    0.00 
 293   14:50   0.18   54.1    46    6.4   170    12.5   99999.0    0.00 
 293   15:00   0.21   53.6    52    7.0   194    12.5   99999.0    0.00 
 293   15:10   0.17   52.5    56    5.8   197    10.8   99999.0    0.00 
 293   15:20   0.08   52.0    57    3.0   196     6.0   99999.0    0.00 
 293   15:30   0.21   52.3    57    4.0   160     6.0   99999.0    0.00 
 293   15:40   0.14   54.1    53    4.1   179     7.2   99999.0    0.00 
 293   15:50   0.14   52.4    57    3.9   156     7.2   99999.0    0.00 
 293   16:00   0.14   53.1    55    3.7   156     7.2   99999.0    0.00 
 293   16:10   0.26   53.8    54    3.0   170     4.8   99999.0    0.00 
 293   16:20   0.19   55.7    49    3.6   163     7.2   99999.0    0.00 
 293   16:30   0.10   52.8    53    4.0   170     6.6   99999.0    0.00 
 293   16:40   0.08   51.8    55    3.3   169     5.4   99999.0    0.00 
 293   16:50   0.04   50.7    57    3.3   148     5.4   99999.0    0.00 
 293   17:00   0.02   49.6    60    1.7   149     3.6   99999.0    0.00 
 293   17:10   0.01   47.6    65    1.2   221     3.0   99999.0    0.00 
 293   17:20   0.01   45.0    72    2.1   222     3.0   99999.0    0.00 
 293   17:30   0.00   43.2    76    1.6   229     2.4   99999.0    0.00 
 293   17:40   0.00   41.9    78    0.9   232     3.6   99999.0    0.00 
 293   17:50   0.00   41.4    81    2.3   236     3.0   99999.0    0.00 
 293   18:00   0.00   42.1    81    2.1   233     3.0   99999.0    0.00 
 293   18:10   0.00   42.5    80    0.7   229     2.4   99999.0    0.00 
 293   18:20   0.00   42.6    80    0.0     0     0.0   99999.0    0.00 
 293   18:30   0.00   42.5    80    1.2   233     2.4   99999.0    0.00 
 293   18:40   0.00   41.7    81    1.6   230     3.0   99999.0    0.00 
 293   18:50   0.00   40.7    83    0.6   222     3.0   99999.0    0.00 
 293   19:00   0.00   40.6    83    0.0     0     0.0   99999.0    0.00 
 293   19:10   0.00   39.8    84    0.2   238     1.8   99999.0    0.00 
 293   19:20   0.00   39.1    86    1.6   237     2.4   99999.0    0.00 
 293   19:30   0.00   38.9    86    2.2   222     8.4   99999.0    0.00 
 293   19:40   0.00   45.0    72    6.5   153    12.5   99999.0    0.00 
 293   19:50   0.00   47.8    64    8.5   140    12.5   99999.0    0.00 
 293   20:00   0.00   47.5    66    6.6   149    11.3   99999.0    0.00 
 293   20:10   0.00   46.4    70    7.0   151    10.8   99999.0    0.00 
 293   20:20   0.00   45.7    73    6.3   145    12.5   99999.0    0.00 
 293   20:30   0.00   45.5    73    4.8   143     9.6   99999.0    0.00 
 293   20:40   0.00   45.5    71    2.8   110     6.0   99999.0    0.00 
 293   20:50   0.00   44.3    74    3.0   134     6.6   99999.0    0.00 
 293   21:00   0.00   44.0    75    3.7   143     7.2   99999.0    0.00 
 293   21:10   0.00   44.8    74    3.6   159     7.2   99999.0    0.00 
 293   21:20   0.00   44.1    76    2.2   205     7.2   99999.0    0.00 
 293   21:30   0.00   44.4    76    2.7   196     6.0   99999.0    0.00 
 293   21:40   0.00   45.1    76    2.5   190     5.4   99999.0    0.00 
 293   21:50   0.00   45.3    76    3.4   189     7.8   99999.0    0.00 
 293   22:00   0.00   45.0    76    2.3   109     7.2   99999.0    0.00 
 293   22:10   0.00   43.7    79    0.4   180     3.0   99999.0    0.00 
 293   22:20   0.00   43.3    81    1.7   129     9.0   99999.0    0.00 
 293   22:30   0.00   42.9    82    2.6   106     4.8   99999.0    0.00 
 293   22:40   0.00   42.5    82    1.9   164     5.4   99999.0    0.00 
 293   22:50   0.00   42.8    83    3.9   155     9.0   99999.0    0.00 
 293   23:00   0.00   43.2    82    3.6   147     6.6   99999.0    0.00 
 293   23:10   0.00   43.5    83    5.3   154    10.2   99999.0    0.00 
 293   23:20   0.00   44.2    82    5.4   145    10.8   99999.0    0.00 
 293   23:30   0.00   44.2    84    5.5   156    10.8   99999.0    0.00 
 293   23:40   0.00   44.5    84    6.2   159    11.3   99999.0    0.00 
 293   23:50   0.00   44.4    84    6.6   161    11.9   99999.0    0.00 
 294    0:00   0.00   44.2    84    6.2   157    11.3   99999.0    0.00 
 294    0:10   0.00   44.4    84    5.4   170     9.0   99999.0    0.00 
 294    0:20   0.00   44.5    84    5.9   181    11.9   99999.0    0.00 

Return to Los Posos, Valles Caldera graphs page.


Western Regional Climate Center,wrcc@dri.edu